Monett, MO

11:35 PM CST on December 09, 2019 (GMT -0600)
Monett

Weather History for KHFJ - August, 2019

Change the Weather History Date:

Friday, August 30, 2019

  Actual Average (WUND) Record (WUND)
Temperature  
Mean Temperature 68 °F -  
Max Temperature 73 °F - - (-1)
Min Temperature 62 °F - - (-1)
Cooling Degree Days 2    
Growing Degree Days 18 (Base 50)    
Moisture  
Dew Point 66 °F    
Average Humidity 94    
Maximum Humidity 100    
Minimum Humidity 78    
Precipitation  
Precipitation 0.27 in - - ()
Sea Level Pressure  
Sea Level Pressure 30.07 in    
Wind  
Wind Speed 9 mph ()    
Max Wind Speed 20 mph    
Max Gust Speed 36 mph    
Visibility 9.9 miles    
Events Rain , Thunderstorm    
Averages and records for this station are not official NWS values.
T = Trace of Precipitation, MM = Missing Value Source: Averaged Metar Reports

Daily Weather History Graph

Daily Weather History Graph

Search for Another Location

Airport or City:

Astronomy

Aug. 30, 2019 Rise Set
Actual Time 6:45 AM CDT 7:47 PM CDT
Civil Twilight 6:18 AM CDT 8:14 PM CDT
Nautical Twilight 5:46 AM CDT 8:45 PM CDT
Astronomical Twilight 5:13 AM CDT 9:18 PM CDT
Moon 6:48 AM CDT (8/30) 8:24 PM CDT (8/30)
Length of Visible Light 13h 55m
Length of Day
13h 02m
New Moon, 0% of the Moon is Illuminated
Aug 30
New Moon
Sep 5
First Quarter
Sep 13
Full
Sep 21
Last Quarter
Sep 28
New

Hourly Weather History & Observations

Time (CDT) Temp. Dew Point Humidity Pressure Visibility Wind Dir Wind Speed Gust Speed Precip Events Conditions
12:15 AM 73.4 °F 71.6 °F 94% 30.03 in 10.0 mi SSE 8.1 mph - N/A Thunderstorm Clear
12:35 AM 73.4 °F 71.6 °F 94% 30.03 in 10.0 mi SSE 8.1 mph - N/A   Scattered Clouds
12:55 AM 73.4 °F 71.6 °F 94% 30.03 in 10.0 mi SE 5.8 mph - N/A   Scattered Clouds
1:15 AM 73.4 °F 71.6 °F 94% 30.05 in 10.0 mi SE 6.9 mph - N/A   Clear
1:35 AM 73.4 °F 71.6 °F 94% 30.05 in 10.0 mi SE 5.8 mph - N/A   Mostly Cloudy
1:55 AM 73.4 °F 71.6 °F 94% 30.05 in 10.0 mi SE 6.9 mph - N/A   Overcast
2:15 AM 73.4 °F 71.6 °F 94% 30.03 in 10.0 mi SSE 8.1 mph - N/A   Mostly Cloudy
2:35 AM 73.4 °F 69.8 °F 88% 30.03 in 10.0 mi SSE 10.4 mph - N/A   Scattered Clouds
2:55 AM 73.4 °F 69.8 °F 88% 30.03 in 10.0 mi SSE 9.2 mph - N/A   Clear
3:15 AM 73.4 °F 69.8 °F 88% 30.04 in 10.0 mi SSE 10.4 mph - N/A   Mostly Cloudy
3:35 AM 73.4 °F 69.8 °F 88% 30.02 in 10.0 mi SSE 10.4 mph 17.3 mph N/A   Mostly Cloudy
3:55 AM 73.4 °F 69.8 °F 88% 30.01 in 10.0 mi South 13.8 mph 17.3 mph N/A   Scattered Clouds
4:15 AM 73.4 °F 69.8 °F 88% 30.03 in 10.0 mi South 13.8 mph - N/A   Mostly Cloudy
4:35 AM 73.4 °F 69.8 °F 88% 30.02 in 10.0 mi South 16.1 mph 24.2 mph N/A Thunderstorm Mostly Cloudy
4:55 AM 69.8 °F 64.4 °F 83% 30.08 in 7.0 mi West 19.6 mph 35.7 mph 0.02 in Rain , Thunderstorm Heavy Thunderstorms and Rain
5:15 AM 64.4 °F 64.4 °F 100% 30.08 in 5.0 mi WSW 6.9 mph 16.1 mph 0.14 in Rain , Thunderstorm Light Thunderstorms and Rain
5:55 AM 64.4 °F 64.4 °F 100% 30.08 in 10.0 mi SSW 6.9 mph - 0.17 in Rain , Thunderstorm Light Thunderstorms and Rain
6:15 AM 64.4 °F 64.4 °F 100% 30.05 in 10.0 mi WSW 6.9 mph - 0.03 in Rain Rain
6:35 AM 64.4 °F 64.4 °F 100% 30.04 in 10.0 mi SSW 8.1 mph - 0.05 in Rain Light Rain
6:55 AM 64.4 °F 64.4 °F 100% 30.04 in 10.0 mi SW 9.2 mph - 0.06 in Rain Light Rain
7:15 AM 64.4 °F 64.4 °F 100% 30.03 in 10.0 mi SSW 10.4 mph - N/A Rain Light Rain
7:35 AM 64.4 °F 64.4 °F 100% 30.04 in 10.0 mi SSW 11.5 mph - 0.01 in Rain Rain
7:55 AM 64.4 °F 64.4 °F 100% 30.04 in 10.0 mi South 9.2 mph - 0.02 in Rain Light Rain
8:15 AM 64.4 °F 64.4 °F 100% 30.00 in 10.0 mi SE 12.7 mph - N/A Rain Light Rain
8:35 AM 64.4 °F 64.4 °F 100% 30.00 in 10.0 mi SE 6.9 mph - N/A   Light Drizzle
8:55 AM 64.4 °F 64.4 °F 100% 30.01 in 10.0 mi South 10.4 mph - N/A   Light Drizzle
9:15 AM 66.2 °F 66.2 °F 100% 30.03 in 10.0 mi SW 8.1 mph - N/A   Overcast
9:35 AM 66.2 °F 66.2 °F 100% 30.02 in 10.0 mi SW 13.8 mph 19.6 mph N/A   Overcast
9:55 AM 66.2 °F 66.2 °F 100% 30.03 in 10.0 mi WSW 12.7 mph 19.6 mph N/A   Overcast
10:15 AM 68.0 °F 68.0 °F 100% 30.04 in 10.0 mi WSW 13.8 mph 18.4 mph N/A   Overcast
10:35 AM 68.0 °F 68.0 °F 100% 30.05 in 10.0 mi West 10.4 mph - N/A   Overcast
10:55 AM 68.0 °F 68.0 °F 100% 30.05 in 10.0 mi West 12.7 mph 18.4 mph N/A   Overcast
11:15 AM 68.0 °F 68.0 °F 100% 30.06 in 10.0 mi West 13.8 mph 18.4 mph N/A   Overcast
11:35 AM 68.0 °F 66.2 °F 94% 30.07 in 10.0 mi West 12.7 mph - N/A   Overcast
11:55 AM 68.0 °F 66.2 °F 94% 30.07 in 10.0 mi West 12.7 mph 17.3 mph N/A   Overcast
12:15 PM 69.8 °F 68.0 °F 94% 30.08 in 10.0 mi West 10.4 mph 16.1 mph N/A   Overcast
12:35 PM 69.8 °F 66.2 °F 88% 30.08 in 10.0 mi West 9.2 mph - N/A   Overcast
12:55 PM 69.8 °F 64.4 °F 83% 30.07 in 10.0 mi WNW 11.5 mph 17.3 mph N/A   Overcast
1:15 PM 69.8 °F 66.2 °F 88% 30.08 in 10.0 mi West 10.4 mph - N/A   Overcast
1:35 PM 71.6 °F 66.2 °F 83% 30.08 in 10.0 mi West 16.1 mph 19.6 mph N/A   Overcast
1:55 PM 71.6 °F 66.2 °F 83% 30.08 in 10.0 mi NW 10.4 mph - N/A   Overcast
2:15 PM 73.4 °F 66.2 °F 78% 30.08 in 10.0 mi NW 8.1 mph - N/A   Overcast
2:35 PM 73.4 °F 66.2 °F 78% 30.08 in 10.0 mi West 12.7 mph - N/A   Mostly Cloudy
2:55 PM 71.6 °F 66.2 °F 83% 30.08 in 10.0 mi West 10.4 mph - N/A   Mostly Cloudy
3:15 PM 71.6 °F 68.0 °F 88% 30.08 in 10.0 mi West 9.2 mph - N/A   Overcast
3:35 PM 71.6 °F 68.0 °F 88% 30.08 in 10.0 mi NW 9.2 mph 16.1 mph N/A   Overcast
3:55 PM 71.6 °F 68.0 °F 88% 30.08 in 10.0 mi NW 12.7 mph - N/A   Overcast
4:15 PM 71.6 °F 66.2 °F 83% 30.09 in 10.0 mi NNW 12.7 mph - N/A   Overcast
4:35 PM 69.8 °F 66.2 °F 88% 30.09 in 10.0 mi WNW 6.9 mph - N/A   Overcast
5:15 PM 68.0 °F 66.2 °F 94% 30.12 in 10.0 mi North 12.7 mph - N/A   Overcast
5:35 PM 68.0 °F 66.2 °F 94% 30.11 in 10.0 mi NNW 9.2 mph - N/A   Overcast
5:55 PM 68.0 °F 64.4 °F 88% 30.12 in 10.0 mi North 10.4 mph - N/A   Overcast
6:15 PM 68.0 °F 64.4 °F 88% 30.12 in 10.0 mi North 10.4 mph - N/A   Overcast
6:35 PM 66.2 °F 64.4 °F 94% 30.12 in 10.0 mi North 9.2 mph - N/A   Overcast
6:55 PM 64.4 °F 64.4 °F 100% 30.12 in 10.0 mi North 12.7 mph - N/A   Overcast
7:15 PM 64.4 °F 64.4 °F 100% 30.12 in 10.0 mi North 12.7 mph 17.3 mph N/A   Overcast
7:35 PM 64.4 °F 62.6 °F 94% 30.12 in 10.0 mi NNE 10.4 mph - N/A   Overcast
7:55 PM 64.4 °F 62.6 °F 94% 30.12 in 10.0 mi NNE 9.2 mph - N/A   Overcast
8:15 PM 64.4 °F 62.6 °F 94% 30.12 in 10.0 mi NNE 10.4 mph - N/A   Overcast
8:35 PM 62.6 °F 60.8 °F 94% 30.12 in 10.0 mi NNE 13.8 mph - N/A   Overcast
9:15 PM 62.6 °F 62.6 °F 100% 30.13 in 10.0 mi North 11.5 mph - N/A   Overcast
9:35 PM 62.6 °F 62.6 °F 100% 30.13 in 10.0 mi NNE 11.5 mph - N/A   Scattered Clouds
9:55 PM 62.6 °F 60.8 °F 94% 30.14 in 10.0 mi NNE 6.9 mph - N/A   Scattered Clouds
10:15 PM 62.6 °F 60.8 °F 94% 30.14 in 10.0 mi NNE 6.9 mph - N/A   Mostly Cloudy
10:55 PM 62.6 °F 62.6 °F 100% 30.15 in 10.0 mi NNE 10.4 mph - N/A   Overcast
11:15 PM 62.6 °F 62.6 °F 100% 30.15 in 10.0 mi NNE 8.1 mph - N/A   Overcast
11:35 PM 62.6 °F 62.6 °F 100% 30.15 in 10.0 mi NE 10.4 mph - N/A   Overcast
11:55 PM 62.6 °F 62.6 °F 100% 30.15 in 10.0 mi NE 6.9 mph - N/A   Overcast